Terminal Aerodrome Forecast
Issued by NWS

Home | Current Version | Previous Version | Text Only | Print | Product List | Glossary On
Versions: 1 2 3 4 5 6 7 8 9 10 11 12 13 14 15 16 17 18 19 20 21 22 23 24 25 26 27 28 29 30
000
FTAK31 PANC 031125
TAFADQ
TAF
PADQ 031125Z 0312/0412 05010KT P6SM VCSH FEW015 SCT025 OVC045
      TEMPO 0312/0316 SCT015 BKN025 OVC040
     FM032100 08008KT P6SM VCSH SCT015 BKN040
     FM040600 VRB04KT P6SM VCSH SCT015 BKN040=

USA.gov is the U.S. government's official web portal to all federal, state and local government web resources and services.